Time;durP1;ratioP1;P1;durP2;ratioP2;P2;SDS_P1;SDS_P2;PMS_P1;PMS_P2;Temp;Humidity;BMP_temperature;BMP_pressure;BME280_temperature;BME280_humidity;BME280_pressure;Samples;Min_cycle;Max_cycle;Signal;HPM_P1;HPM_P2
2022/11/29 00:06:39;;;;;;;38.60;20.58;;;;;;;1.54;75.05;100451.53;30864634;28;96761;-71
2022/11/29 00:21:40;;;;;;;35.92;20.27;;;;;;;1.56;74.79;100449.66;30868446;28;97094;-72
2022/11/29 00:36:40;;;;;;;38.53;19.45;;;;;;;1.50;74.82;100439.56;30867242;28;96720;-72
2022/11/29 00:51:40;;;;;;;43.63;20.98;;;;;;;1.45;74.99;100439.88;30865120;28;96918;-71
2022/11/29 01:06:41;;;;;;;40.28;21.25;;;;;;;1.40;74.65;100423.59;30864594;28;97170;-72
2022/11/29 01:21:41;;;;;;;34.58;19.70;;;;;;;1.39;75.11;100437.66;30861288;28;96737;-71
2022/11/29 01:36:42;;;;;;;39.03;19.45;;;;;;;1.32;74.97;100447.75;30862030;28;97039;-71
2022/11/29 01:51:49;;;;;;;36.35;19.52;;;;;;;1.28;74.71;100435.78;30859610;28;96664;-69
2022/11/29 02:06:49;;;;;;;30.63;17.40;;;;;;;1.26;75.07;100427.19;30858863;28;97666;-70
2022/11/29 02:22:03;;;;;;;30.73;18.40;;;;;;;1.25;74.87;100429.91;30856988;28;97227;-71
2022/11/29 02:37:09;;;;;;;27.60;18.00;;;;;;;1.40;75.40;100438.53;30854739;28;99770;-72
2022/11/29 02:52:36;;;;;;;28.92;16.52;;;;;;;1.43;75.11;100443.56;30855368;28;97164;-71
2022/11/29 03:07:52;;;;;;;33.42;16.42;;;;;;;1.54;75.26;100463.84;30852810;28;97411;-72
2022/11/29 03:23:10;;;;;;;24.90;15.18;;;;;;;1.63;75.48;100469.28;30852677;28;97385;-73
2022/11/29 03:38:27;;;;;;;32.35;16.67;;;;;;;1.59;75.63;100473.06;30861306;28;96648;-71
2022/11/29 03:53:42;;;;;;;28.00;15.43;;;;;;;1.62;75.61;100472.84;30871395;28;96695;-71
2022/11/29 04:08:57;;;;;;;25.08;14.77;;;;;;;1.63;75.36;100479.78;30868619;28;97503;-72
2022/11/29 04:24:25;;;;;;;27.17;15.48;;;;;;;1.58;75.58;100487.13;30868502;28;96791;-70
2022/11/29 04:40:13;;;;;;;29.02;15.68;;;;;;;1.51;75.30;100493.75;30867226;28;97277;-72
2022/11/29 04:55:20;;;;;;;25.48;14.68;;;;;;;1.67;75.61;100518.03;30859721;28;96777;-69
2022/11/29 05:10:40;;;;;;;33.42;16.95;;;;;;;1.69;75.35;100520.53;30861274;28;96734;-71
2022/11/29 05:25:43;;;;;;;27.42;15.60;;;;;;;1.65;75.22;100526.94;30859778;28;97306;-69
2022/11/29 05:41:02;;;;;;;28.08;16.65;;;;;;;1.68;75.42;100532.84;30831898;28;97356;-67
2022/11/29 05:56:15;;;;;;;36.38;19.40;;;;;;;1.72;75.15;100548.41;30831220;28;97348;-71
2022/11/29 06:11:37;;;;;;;30.70;17.40;;;;;;;1.74;75.38;100559.66;30831834;28;97866;-67
2022/11/29 06:26:43;;;;;;;38.10;18.33;;;;;;;1.73;75.75;100573.72;30819815;28;96785;-67
2022/11/29 06:41:45;;;;;;;33.53;19.20;;;;;;;1.77;75.75;100581.28;30825171;28;97427;-67
2022/11/29 06:56:57;;;;;;;28.23;16.75;;;;;;;1.84;75.27;100594.84;30830079;28;97997;-67
2022/11/29 07:11:58;;;;;;;29.50;17.38;;;;;;;1.96;75.65;100594.00;30841830;28;97248;-66
2022/11/29 07:27:11;;;;;;;32.58;17.83;;;;;;;2.01;75.35;100604.22;30851391;28;98664;-69
2022/11/29 07:42:18;;;;;;;30.17;17.97;;;;;;;2.20;75.33;100611.66;30853454;28;97328;-65
2022/11/29 07:57:18;;;;;;;34.20;19.20;;;;;;;2.43;75.67;100614.50;30875539;28;97696;-73
2022/11/29 08:12:19;;;;;;;38.03;19.92;;;;;;;2.64;74.97;100620.88;30874894;28;96665;-68
2022/11/29 08:27:19;;;;;;;29.50;17.77;;;;;;;2.86;74.71;100622.81;30857374;28;96737;-73
2022/11/29 08:42:20;;;;;;;31.55;19.02;;;;;;;2.97;74.44;100643.09;30824610;28;96732;-70
2022/11/29 08:57:20;;;;;;;30.30;18.80;;;;;;;3.10;74.34;100642.22;30861291;28;96746;-68
2022/11/29 09:12:20;;;;;;;39.88;20.27;;;;;;;3.20;73.80;100645.88;30857449;28;97288;-70
2022/11/29 09:27:21;;;;;;;31.15;18.70;;;;;;;3.27;74.01;100652.38;30856762;28;97125;-68
2022/11/29 09:43:02;;;;;;;33.45;18.63;;;;;;;3.31;73.87;100659.09;30853469;28;97433;-72
2022/11/29 09:58:09;;;;;;;32.65;17.92;;;;;;;3.34;73.74;100648.34;30810473;28;96740;-69
2022/11/29 10:13:23;;;;;;;29.40;17.00;;;;;;;3.70;73.69;100641.31;30804671;28;97120;-67
2022/11/29 10:28:29;;;;;;;28.50;15.57;;;;;;;3.97;73.35;100655.16;30733180;28;96661;-68
2022/11/29 10:43:30;;;;;;;26.98;14.90;;;;;;;4.13;72.80;100654.81;30791994;28;96783;-64
2022/11/29 10:58:30;;;;;;;27.23;15.45;;;;;;;4.32;72.58;100652.47;30837668;28;98324;-68
2022/11/29 11:13:33;;;;;;;28.40;16.60;;;;;;;4.46;72.26;100637.38;30833895;28;97444;-70
2022/11/29 11:28:58;;;;;;;26.25;15.98;;;;;;;4.57;71.98;100640.00;30822255;28;97367;-67
2022/11/29 11:43:59;;;;;;;25.13;14.85;;;;;;;4.62;71.69;100637.88;30822951;28;98862;-69
2022/11/29 11:58:59;;;;;;;29.67;15.45;;;;;;;4.92;71.61;100646.94;30828895;28;97347;-66
2022/11/29 12:14:03;;;;;;;28.60;15.30;;;;;;;5.30;71.28;100661.50;30837481;28;97495;-66
2022/11/29 12:29:12;;;;;;;23.38;13.77;;;;;;;5.55;70.44;100652.41;30837119;28;97372;-65
2022/11/29 12:44:28;;;;;;;24.90;13.18;;;;;;;5.50;69.89;100654.59;30824992;28;98482;-65
2022/11/29 12:59:31;;;;;;;21.95;13.00;;;;;;;5.32;69.46;100667.50;30828803;28;97174;-70
2022/11/29 13:14:41;;;;;;;21.85;13.38;;;;;;;5.20;69.19;100685.19;30831914;28;99689;-66
2022/11/29 13:29:42;;;;;;;29.05;14.75;;;;;;;5.09;69.04;100690.47;30828013;28;97259;-68
2022/11/29 13:44:42;;;;;;;22.83;13.40;;;;;;;5.05;69.15;100700.44;30830373;28;97284;-64
2022/11/29 13:59:48;;;;;;;22.95;13.50;;;;;;;5.02;69.00;100715.72;30822711;28;97729;-72
2022/11/29 14:14:57;;;;;;;22.83;12.82;;;;;;;4.89;68.93;100729.03;30822978;28;97456;-66
2022/11/29 14:29:57;;;;;;;17.92;11.90;;;;;;;4.81;68.62;100734.91;30819130;28;98109;-67
2022/11/29 14:45:05;;;;;;;21.90;13.90;;;;;;;4.74;68.61;100744.25;30843727;28;97377;-65
2022/11/29 15:00:10;;;;;;;20.15;12.93;;;;;;;4.69;68.45;100749.91;30833377;28;97858;-63
2022/11/29 15:15:46;;;;;;;20.20;12.23;;;;;;;4.57;68.89;100759.59;30811987;28;97585;-67
2022/11/29 15:30:48;;;;;;;22.38;11.80;;;;;;;4.55;68.13;100768.56;30813034;28;97312;-65
2022/11/29 15:45:51;;;;;;;23.13;12.63;;;;;;;4.55;68.13;100768.56;30838545;28;97505;-65
2022/11/29 16:00:53;;;;;;;23.05;11.88;;;;;;;4.53;68.22;100788.97;30833707;28;97533;-68
2022/11/29 16:16:14;;;;;;;21.85;11.48;;;;;;;4.45;67.56;100791.34;30835219;28;98014;-71
2022/11/29 16:31:19;;;;;;;21.88;12.27;;;;;;;4.35;67.32;100797.31;30843008;28;97681;-69
2022/11/29 16:46:19;;;;;;;21.35;12.50;;;;;;;4.21;67.58;100803.63;30859888;28;96816;-78
2022/11/29 17:01:26;;;;;;;24.27;13.60;;;;;;;4.06;67.59;100818.78;30861421;28;96982;-66
2022/11/29 17:16:26;;;;;;;21.30;13.95;;;;;;;3.81;67.42;100832.88;30859258;28;96805;-68
2022/11/29 17:31:28;;;;;;;24.23;14.80;;;;;;;3.50;68.13;100827.19;30837924;28;99756;-68
2022/11/29 17:46:31;;;;;;;31.00;15.95;;;;;;;3.28;68.21;100840.19;30780683;28;96996;-72
2022/11/29 18:01:33;;;;;;;34.78;17.67;;;;;;;3.30;68.92;100852.28;30725708;28;97073;-69
2022/11/29 18:16:34;;;;;;;34.78;19.10;;;;;;;3.41;68.74;100864.72;30755818;28;97496;-71
2022/11/29 18:31:40;;;;;;;40.22;21.20;;;;;;;3.11;68.89;100872.94;30792976;28;97225;-68
2022/11/29 18:46:43;;;;;;;37.08;21.17;;;;;;;3.15;70.11;100884.97;30772134;28;97704;-69
2022/11/29 19:01:46;;;;;;;33.15;19.35;;;;;;;3.01;69.70;100894.63;30772499;28;96914;-69
2022/11/29 19:16:48;;;;;;;36.05;22.00;;;;;;;2.60;69.81;100908.78;30790204;28;97133;-67
2022/11/29 19:31:49;;;;;;;46.58;22.70;;;;;;;2.16;70.36;100928.25;30812841;28;97700;-68
2022/11/29 19:46:49;;;;;;;45.28;24.40;;;;;;;1.81;71.49;100929.53;30791465;28;96893;-68
2022/11/29 20:01:50;;;;;;;45.00;24.48;;;;;;;1.56;71.65;100939.88;30772207;28;96757;-67
2022/11/29 20:16:50;;;;;;;44.83;24.98;;;;;;;1.14;72.54;100939.75;30731858;28;97272;-68
2022/11/29 20:31:51;;;;;;;59.03;28.25;;;;;;;0.72;72.45;100949.19;30732796;28;97017;-68
2022/11/29 20:46:51;;;;;;;51.67;28.77;;;;;;;0.37;73.05;100954.63;30733565;28;96736;-68
2022/11/29 21:01:52;;;;;;;54.67;27.05;;;;;;;0.05;73.49;100972.97;30802865;28;96902;-68
2022/11/29 21:16:52;;;;;;;58.15;27.60;;;;;;;-0.23;74.13;100974.47;30834746;28;97146;-68
2022/11/29 21:31:53;;;;;;;50.92;26.92;;;;;;;-0.47;74.73;100985.28;30757447;28;97421;-69
2022/11/29 21:46:54;;;;;;;50.58;27.40;;;;;;;-0.55;75.16;100987.44;30851619;28;96831;-68
2022/11/29 22:01:54;;;;;;;50.40;27.02;;;;;;;-0.70;75.34;100995.19;30798827;28;97694;-70
2022/11/29 22:16:57;;;;;;;53.50;29.10;;;;;;;-0.74;75.81;101001.50;30734277;28;97744;-69
2022/11/29 22:31:59;;;;;;;55.65;27.92;;;;;;;-0.77;76.07;100988.53;30735647;28;97940;-68
2022/11/29 22:47:00;;;;;;;57.28;28.20;;;;;;;-0.76;76.31;101003.31;30855285;28;96714;-68
2022/11/29 23:02:01;;;;;;;60.33;29.02;;;;;;;-0.78;76.71;101002.56;30855118;28;97243;-68
2022/11/29 23:17:02;;;;;;;59.15;28.08;;;;;;;-0.81;77.06;101002.69;30853959;28;97626;-68
2022/11/29 23:32:02;;;;;;;52.70;28.45;;;;;;;-0.87;77.04;101003.03;30852860;28;98028;-68
2022/11/29 23:47:03;;;;;;;52.13;27.45;;;;;;;-0.96;77.06;101004.31;30852660;28;96739;-68
